Time;durP1;ratioP1;P1;durP2;ratioP2;P2;SDS_P1;SDS_P2;PMS_P1;PMS_P2;Temp;Humidity;BMP_temperature;BMP_pressure;BME280_temperature;BME280_humidity;BME280_pressure;Samples;Min_cycle;Max_cycle;Signal;HPM_P1;HPM_P2
2022/12/13 00:00:17;;;;;;;38.85;15.35;;;;;;;-2.69;75.01;99513.06;4915828;28;20507;-82
2022/12/13 00:02:44;;;;;;;34.78;16.45;;;;;;;-2.72;74.95;99508.84;4948946;28;20054;-82
2022/12/13 00:05:12;;;;;;;38.05;15.38;;;;;;;-2.63;74.92;99507.59;4976450;28;20054;-82
2022/12/13 00:07:40;;;;;;;37.88;15.77;;;;;;;-2.74;74.88;99500.25;4927655;28;20122;-81
2022/12/13 00:10:07;;;;;;;35.33;15.07;;;;;;;-2.74;74.75;99492.44;4984015;28;20049;-82
2022/12/13 00:12:34;;;;;;;39.72;15.35;;;;;;;-2.67;74.71;99495.63;4971390;28;20494;-85
2022/12/13 00:15:01;;;;;;;39.22;16.92;;;;;;;-2.73;74.74;99488.94;4964107;28;20057;-81
2022/12/13 00:17:27;;;;;;;42.05;16.63;;;;;;;-2.68;74.74;99484.41;4948403;28;20134;-81
2022/12/13 00:19:54;;;;;;;32.70;14.35;;;;;;;-2.72;74.67;99484.56;4949634;28;20458;-81
2022/12/13 00:22:21;;;;;;;33.40;15.93;;;;;;;-2.77;74.57;99484.78;4949918;28;20133;-82
2022/12/13 00:24:47;;;;;;;38.40;15.68;;;;;;;-2.85;75.14;99481.63;4996517;28;20073;-82
2022/12/13 00:27:14;;;;;;;39.05;16.05;;;;;;;-2.77;74.72;99483.91;4970422;28;20566;-82
2022/12/13 00:29:41;;;;;;;41.33;16.73;;;;;;;-2.75;74.63;99474.31;4997302;28;20046;-82
2022/12/13 00:32:07;;;;;;;36.88;14.93;;;;;;;-2.74;74.36;99474.25;5001116;28;20848;-82
2022/12/13 00:34:34;;;;;;;40.97;15.68;;;;;;;-2.86;74.32;99470.38;4983766;28;20498;-82
2022/12/13 00:37:01;;;;;;;38.13;15.75;;;;;;;-2.88;74.65;99467.00;4979241;28;20697;-82
2022/12/13 00:39:28;;;;;;;38.90;16.95;;;;;;;-2.88;74.32;99466.16;4965233;28;20047;-84
2022/12/13 00:41:55;;;;;;;31.52;15.02;;;;;;;-2.89;74.44;99462.72;4945439;28;20102;-82
2022/12/13 00:44:21;;;;;;;37.38;15.82;;;;;;;-2.82;74.98;99458.13;4930723;28;20031;-82
2022/12/13 00:46:50;;;;;;;42.22;16.67;;;;;;;-2.81;74.61;99457.22;4932067;28;20048;-83
2022/12/13 00:49:17;;;;;;;38.47;16.00;;;;;;;-2.85;74.53;99458.22;4973950;28;20124;-82
2022/12/13 00:51:43;;;;;;;40.00;16.05;;;;;;;-2.76;74.47;99459.63;4981179;28;20082;-82
2022/12/13 00:54:10;;;;;;;43.85;16.77;;;;;;;-2.87;74.32;99453.13;4999311;28;20105;-82
2022/12/13 00:56:37;;;;;;;40.13;16.27;;;;;;;-2.77;74.63;99458.78;4991209;28;20062;-81
2022/12/13 00:59:03;;;;;;;43.58;16.98;;;;;;;-2.77;74.33;99448.41;4937645;28;20453;-82
2022/12/13 01:01:32;;;;;;;37.95;15.65;;;;;;;-2.69;74.17;99450.69;4955181;28;21533;-83
2022/12/13 01:04:01;;;;;;;38.67;17.27;;;;;;;-2.66;73.70;99453.16;4952319;28;20525;-82
2022/12/13 01:06:43;;;;;;;37.92;16.63;;;;;;;-2.76;74.09;99446.66;4976919;28;20130;-82
2022/12/13 01:09:16;;;;;;;40.65;16.17;;;;;;;-2.73;73.75;99449.09;4931848;28;20046;-81
2022/12/13 01:11:44;;;;;;;39.60;16.23;;;;;;;-2.63;73.50;99450.44;4962945;28;20508;-82
2022/12/13 01:14:10;;;;;;;38.58;16.05;;;;;;;-2.68;73.70;99444.56;4982823;28;20473;-82
2022/12/13 01:16:37;;;;;;;41.17;16.55;;;;;;;-2.69;73.50;99448.09;4948230;28;20043;-82
2022/12/13 01:19:03;;;;;;;43.15;16.45;;;;;;;-2.70;73.24;99446.38;4966797;28;20046;-82
2022/12/13 01:21:30;;;;;;;47.42;17.38;;;;;;;-2.75;73.15;99448.31;4968791;28;20045;-82
2022/12/13 01:24:04;;;;;;;38.45;16.13;;;;;;;-2.75;73.06;99443.13;4963478;28;20077;-82
2022/12/13 01:26:32;;;;;;;39.42;16.33;;;;;;;-2.84;73.22;99446.94;4981140;28;20069;-82
2022/12/13 01:28:59;;;;;;;35.88;16.50;;;;;;;-2.84;73.64;99460.78;4978820;28;20133;-82
2022/12/13 01:31:26;;;;;;;42.65;17.13;;;;;;;-2.75;73.63;99458.72;4951345;28;20524;-82
2022/12/13 01:33:53;;;;;;;41.97;15.88;;;;;;;-2.77;73.41;99452.72;4964241;28;20058;-83
2022/12/13 01:36:20;;;;;;;40.03;16.35;;;;;;;-2.82;73.46;99460.72;4954415;28;20034;-82
2022/12/13 01:38:57;;;;;;;41.28;16.60;;;;;;;-2.84;73.34;99463.38;4951868;28;20059;-82
2022/12/13 01:41:26;;;;;;;45.13;17.05;;;;;;;-2.85;73.83;99464.28;4994712;28;20413;-82
2022/12/13 01:43:56;;;;;;;36.33;16.30;;;;;;;-2.84;73.24;99465.13;4982461;28;20077;-82
2022/12/13 01:46:23;;;;;;;40.53;15.80;;;;;;;-2.88;73.42;99456.59;4978147;28;20178;-82
2022/12/13 01:48:57;;;;;;;36.78;14.80;;;;;;;-2.82;73.26;99447.75;4916650;28;20616;-83
2022/12/13 01:51:37;;;;;;;45.00;16.77;;;;;;;-2.84;73.45;99445.19;4985450;28;20054;-82
2022/12/13 01:54:05;;;;;;;37.10;16.15;;;;;;;-2.76;73.01;99446.66;4942014;28;20049;-82
2022/12/13 01:56:36;;;;;;;37.60;15.30;;;;;;;-2.85;73.14;99447.84;4963860;28;20078;-82
2022/12/13 01:59:05;;;;;;;42.15;16.08;;;;;;;-2.82;72.89;99437.34;4950486;28;20104;-82
2022/12/13 02:01:33;;;;;;;39.90;16.30;;;;;;;-2.84;72.78;99444.34;4988245;28;20501;-82
2022/12/13 02:03:59;;;;;;;36.20;16.33;;;;;;;-2.97;73.34;99445.75;4963437;28;20073;-82
2022/12/13 02:06:39;;;;;;;43.10;15.98;;;;;;;-2.95;73.06;99446.50;4975268;28;20050;-82
2022/12/13 02:09:07;;;;;;;37.55;17.35;;;;;;;-2.93;73.01;99445.53;4928379;28;20040;-82
2022/12/13 02:11:34;;;;;;;36.92;15.18;;;;;;;-2.92;73.27;99443.81;4998774;28;20066;-83
2022/12/13 02:14:01;;;;;;;43.50;16.45;;;;;;;-2.94;73.28;99441.25;4966853;28;20054;-83
2022/12/13 02:16:47;;;;;;;37.00;14.93;;;;;;;-3.03;73.00;99439.03;4981504;28;20042;-82
2022/12/13 02:19:26;;;;;;;42.10;15.60;;;;;;;-3.01;73.07;99442.41;4943721;28;20046;-83
2022/12/13 02:22:36;;;;;;;35.35;14.75;;;;;;;-3.02;72.57;99439.88;4979521;28;20042;-83
2022/12/13 02:25:38;;;;;;;40.97;15.13;;;;;;;-3.18;73.33;99437.88;4900205;28;20197;-82
2022/12/13 02:28:42;;;;;;;38.10;15.93;;;;;;;-3.14;72.83;99434.25;4976839;28;20047;-82
2022/12/13 02:31:12;;;;;;;;;;;;;;;-3.19;72.87;99433.59;4959300;28;20050;-81
2022/12/13 02:33:42;;;;;;;41.63;15.52;;;;;;;-3.13;73.13;99429.91;4983322;28;19926;-82
2022/12/13 02:36:18;;;;;;;41.35;15.35;;;;;;;-3.03;72.78;99435.59;4969989;28;20516;-82
2022/12/13 02:38:53;;;;;;;39.85;15.55;;;;;;;-3.14;72.83;99443.78;4966165;28;20062;-82
2022/12/13 02:41:39;;;;;;;35.63;15.77;;;;;;;-3.15;73.12;99437.75;5002624;28;20050;-82
2022/12/13 02:44:10;;;;;;;38.00;15.27;;;;;;;-3.18;73.37;99430.09;4918900;28;20576;-82
2022/12/13 02:47:01;;;;;;;40.03;15.30;;;;;;;-3.25;73.21;99420.00;4962948;28;20069;-82
2022/12/13 02:49:31;;;;;;;37.95;16.00;;;;;;;-3.22;73.03;99428.50;4967621;28;20054;-82
2022/12/13 02:51:59;;;;;;;42.55;15.60;;;;;;;-3.28;73.14;99428.75;4931915;28;20042;-82
2022/12/13 02:54:26;;;;;;;38.42;15.15;;;;;;;-3.31;72.97;99421.94;4953498;28;20064;-84
2022/12/13 02:56:57;;;;;;;38.53;15.30;;;;;;;-3.32;73.24;99422.81;4990356;28;20137;-82
2022/12/13 02:59:30;;;;;;;40.22;15.63;;;;;;;-3.32;73.05;99425.41;4929460;28;20042;-82
2022/12/13 03:02:06;;;;;;;39.95;16.08;;;;;;;-3.39;73.29;99428.31;4915806;28;20050;-83
2022/12/13 03:08:05;;;;;;;36.45;14.85;;;;;;;-3.39;73.41;99423.94;4924396;28;20638;-83
2022/12/13 03:10:38;;;;;;;37.67;16.50;;;;;;;-3.44;73.31;99422.44;4948800;28;20082;-82
2022/12/13 03:15:57;;;;;;;41.15;15.38;;;;;;;-3.32;73.26;99420.22;4927531;28;20050;-82
2022/12/13 03:18:26;;;;;;;38.63;15.88;;;;;;;-3.47;73.71;99420.81;4984254;28;20077;-82
2022/12/13 03:20:57;;;;;;;34.08;15.20;;;;;;;-3.39;73.49;99423.94;4955302;28;20498;-82
2022/12/13 03:23:24;;;;;;;39.28;15.90;;;;;;;-3.41;73.24;99418.00;4981648;28;20073;-82
2022/12/13 03:25:53;;;;;;;40.28;17.33;;;;;;;-3.43;73.21;99413.78;4981725;28;20053;-83
2022/12/13 03:28:20;;;;;;;38.85;15.77;;;;;;;-3.43;73.15;99414.63;4954171;28;20046;-83
2022/12/13 03:30:47;;;;;;;40.25;15.60;;;;;;;-3.49;73.60;99407.03;4973454;28;20049;-82
2022/12/13 03:33:14;;;;;;;42.42;15.57;;;;;;;-3.45;73.56;99408.63;4967892;28;20048;-82
2022/12/13 03:35:41;;;;;;;39.97;15.43;;;;;;;-3.40;73.60;99408.47;4973328;28;20081;-82
2022/12/13 03:38:15;;;;;;;43.00;15.25;;;;;;;-3.38;73.37;99410.09;4954296;28;20054;-83
2022/12/13 03:40:53;;;;;;;37.38;14.70;;;;;;;-3.39;73.17;99415.31;4955300;28;20046;-82
2022/12/13 03:43:20;;;;;;;36.05;15.88;;;;;;;-3.48;73.45;99407.91;4965438;28;20046;-82
2022/12/13 03:45:50;;;;;;;36.47;15.15;;;;;;;-3.46;73.55;99409.53;4959243;28;20468;-82
2022/12/13 03:48:17;;;;;;;37.63;16.20;;;;;;;-3.58;73.43;99407.41;4968246;28;20046;-83
2022/12/13 03:50:49;;;;;;;41.28;16.17;;;;;;;-3.61;73.28;99405.78;4936051;28;20397;-82
2022/12/13 03:53:16;;;;;;;40.38;14.90;;;;;;;-3.59;73.46;99403.09;5004656;28;20050;-83
2022/12/13 03:55:59;;;;;;;37.72;15.77;;;;;;;-3.56;73.31;99408.16;5000275;28;20144;-82
2022/12/13 03:58:28;;;;;;;36.50;15.55;;;;;;;-3.54;73.70;99403.78;4968821;28;20047;-82
2022/12/13 04:01:07;;;;;;;36.83;15.45;;;;;;;-3.60;73.40;99394.47;4951982;28;20058;-82
2022/12/13 04:03:35;;;;;;;40.30;16.50;;;;;;;-3.69;73.67;99393.97;4937288;28;20058;-82
2022/12/13 04:06:02;;;;;;;41.28;15.63;;;;;;;-3.68;73.60;99399.13;4975511;28;20453;-82
2022/12/13 04:08:29;;;;;;;36.42;15.98;;;;;;;-3.65;73.45;99393.81;4965882;28;20045;-82
2022/12/13 04:10:55;;;;;;;39.63;15.57;;;;;;;-3.58;73.35;99391.84;4932994;28;20096;-83
2022/12/13 04:13:32;;;;;;;38.20;15.85;;;;;;;-3.64;73.74;99395.47;4957030;28;20458;-82
2022/12/13 04:15:59;;;;;;;36.03;16.55;;;;;;;-3.61;73.23;99397.13;4983561;28;20062;-83
2022/12/13 04:18:27;;;;;;;38.95;16.25;;;;;;;-3.64;73.21;99389.44;4965480;28;20046;-82
2022/12/13 04:20:53;;;;;;;41.83;16.75;;;;;;;-3.59;73.23;99400.50;4978525;28;20054;-82
2022/12/13 04:23:20;;;;;;;38.20;15.32;;;;;;;-3.54;72.96;99396.00;4968193;28;20059;-81
2022/12/13 04:25:47;;;;;;;40.63;16.13;;;;;;;-3.52;73.11;99397.63;4946264;28;20057;-86
2022/12/13 04:28:13;;;;;;;36.95;15.48;;;;;;;-3.52;72.86;99407.16;4985276;28;20046;-83
2022/12/13 04:30:49;;;;;;;35.60;13.93;;;;;;;-3.50;72.84;99405.34;4978749;28;20129;-83
2022/12/13 04:33:23;;;;;;;38.30;15.55;;;;;;;-3.56;72.79;99398.66;4970714;28;20046;-82
2022/12/13 04:35:50;;;;;;;38.67;15.32;;;;;;;-3.60;73.40;99401.41;4982797;28;20042;-82
2022/12/13 04:38:17;;;;;;;35.88;15.98;;;;;;;-3.54;72.87;99394.22;4972778;28;20130;-83
2022/12/13 04:40:43;;;;;;;41.22;16.92;;;;;;;-3.65;73.06;99392.97;4950857;28;20046;-82
2022/12/13 04:43:10;;;;;;;43.47;15.63;;;;;;;-3.63;72.91;99397.19;4969410;28;20459;-83
2022/12/13 04:45:37;;;;;;;43.50;16.13;;;;;;;-3.60;73.09;99396.22;4935970;28;20051;-82
2022/12/13 04:48:05;;;;;;;43.08;16.27;;;;;;;-3.56;73.17;99397.78;4965935;28;20078;-82
2022/12/13 04:50:32;;;;;;;38.20;16.40;;;;;;;-3.58;72.63;99402.22;4949098;28;20849;-83
2022/12/13 04:52:58;;;;;;;39.92;15.75;;;;;;;-3.65;72.83;99404.19;4984393;28;20058;-82
2022/12/13 04:55:27;;;;;;;41.67;15.65;;;;;;;-3.68;72.84;99391.34;4968434;28;20049;-82
2022/12/13 04:57:54;;;;;;;38.47;15.57;;;;;;;-3.69;72.87;99394.81;4965128;28;20121;-84
2022/12/13 05:00:21;;;;;;;37.75;16.02;;;;;;;-3.66;73.57;99397.31;4926267;28;20051;-83
2022/12/13 05:02:48;;;;;;;33.63;15.00;;;;;;;-3.67;72.67;99387.81;4926068;28;20173;-82
2022/12/13 05:05:15;;;;;;;37.60;14.73;;;;;;;-3.70;72.73;99390.53;4949575;28;20058;-82
2022/12/13 05:07:42;;;;;;;39.30;15.52;;;;;;;-3.72;72.67;99390.56;4939291;28;20141;-85
2022/12/13 05:10:10;;;;;;;39.75;15.68;;;;;;;-3.73;72.67;99391.50;4966801;28;20086;-85
2022/12/13 05:12:37;;;;;;;41.28;15.23;;;;;;;-3.72;72.87;99397.53;4979343;28;20152;-86
2022/12/13 05:15:04;;;;;;;42.67;16.23;;;;;;;-3.72;72.74;99393.16;5000965;28;20047;-86
2022/12/13 05:17:31;;;;;;;35.03;14.65;;;;;;;-3.81;72.70;99396.13;4980911;28;20494;-87
2022/12/13 05:19:58;;;;;;;38.83;16.60;;;;;;;-3.77;72.92;99384.72;4983837;28;20058;-83
2022/12/13 05:22:25;;;;;;;45.03;16.00;;;;;;;-3.73;72.47;99382.88;4952379;28;20038;-83
2022/12/13 05:24:52;;;;;;;39.63;16.50;;;;;;;-3.76;72.91;99391.63;4935843;28;20109;-84
2022/12/13 05:27:18;;;;;;;39.05;15.32;;;;;;;-3.85;73.04;99380.72;4980787;28;20129;-84
2022/12/13 05:29:55;;;;;;;40.88;15.13;;;;;;;-3.83;72.61;99390.16;4962690;28;20118;-85
2022/12/13 05:32:32;;;;;;;40.83;16.88;;;;;;;-3.84;72.22;99387.59;4979227;28;20046;-86
2022/12/13 05:35:14;;;;;;;38.65;15.95;;;;;;;-3.88;72.60;99389.47;4960950;28;20039;-86
2022/12/13 05:37:52;;;;;;;36.88;15.07;;;;;;;-3.90;72.72;99380.88;4962980;28;20054;-83
2022/12/13 05:40:26;;;;;;;44.08;16.55;;;;;;;-3.93;72.59;99384.44;4956087;28;20118;-83
2022/12/13 05:42:53;;;;;;;39.30;15.90;;;;;;;-3.97;72.02;99380.28;4967204;28;20125;-83
2022/12/13 05:45:30;;;;;;;44.10;17.25;;;;;;;-3.95;72.45;99390.59;4960319;28;20450;-83
2022/12/13 05:47:58;;;;;;;39.03;16.02;;;;;;;-3.90;72.62;99382.63;4927486;28;20043;-83
2022/12/13 05:50:25;;;;;;;39.78;15.50;;;;;;;-3.90;72.30;99382.63;4943943;28;20129;-83
2022/12/13 05:52:52;;;;;;;33.95;14.50;;;;;;;-3.96;72.43;99383.72;4930336;28;20133;-83
2022/12/13 05:55:18;;;;;;;38.13;15.02;;;;;;;-4.01;72.35;99383.03;4927376;28;20097;-84
2022/12/13 05:57:45;;;;;;;37.35;15.45;;;;;;;-4.00;72.45;99379.53;4929298;28;20360;-83
2022/12/13 06:00:17;;;;;;;42.15;17.02;;;;;;;-3.96;72.20;99374.19;4907951;28;20748;-83
2022/12/13 06:02:57;;;;;;;36.83;15.80;;;;;;;-3.91;72.10;99370.59;4944282;28;20078;-83
2022/12/13 06:05:28;;;;;;;36.28;15.93;;;;;;;-3.96;72.29;99374.19;4979317;28;20491;-83
2022/12/13 06:07:55;;;;;;;38.50;14.65;;;;;;;-3.88;71.74;99389.47;4935589;28;20054;-83
2022/12/13 06:10:24;;;;;;;33.65;15.23;;;;;;;-3.87;71.72;99375.59;4971666;28;20581;-83
2022/12/13 06:13:02;;;;;;;35.60;14.45;;;;;;;-3.96;72.11;99381.97;4965589;28;20568;-83
2022/12/13 06:15:46;;;;;;;39.72;15.00;;;;;;;-3.94;71.81;99369.78;4938008;28;20326;-83
2022/12/13 06:18:13;;;;;;;40.72;16.42;;;;;;;-3.93;72.30;99363.69;4978434;28;20097;-83
2022/12/13 06:20:40;;;;;;;42.70;16.45;;;;;;;-3.86;72.47;99359.13;4968234;28;20054;-85
2022/12/13 06:23:06;;;;;;;35.90;14.90;;;;;;;-3.86;72.40;99364.31;4997949;28;20042;-83
2022/12/13 06:25:33;;;;;;;41.38;15.43;;;;;;;-3.85;72.23;99362.56;4960664;28;20043;-83
2022/12/13 06:27:59;;;;;;;36.63;15.20;;;;;;;-3.88;72.17;99376.50;4964571;28;20499;-83
2022/12/13 06:30:30;;;;;;;39.53;16.73;;;;;;;-3.93;71.86;99375.81;4964458;28;20186;-83
2022/12/13 06:32:57;;;;;;;39.75;17.00;;;;;;;-4.00;72.17;99376.94;4962262;28;20054;-94
2022/12/13 06:35:24;;;;;;;37.80;15.35;;;;;;;-3.91;71.96;99374.03;4985929;28;20046;-94
2022/12/13 06:37:56;;;;;;;38.53;16.67;;;;;;;-4.00;71.96;99375.19;4994538;28;20146;-94
2022/12/13 06:40:31;;;;;;;34.05;15.23;;;;;;;-3.99;72.29;99382.09;4959564;28;20050;-94
2022/12/13 06:42:57;;;;;;;39.25;16.00;;;;;;;-3.95;72.44;99393.19;4970331;28;20170;-94
2022/12/13 06:45:24;;;;;;;33.67;14.75;;;;;;;-3.86;72.18;99394.63;4947204;28;20064;-93
2022/12/13 06:47:51;;;;;;;42.50;16.55;;;;;;;-3.91;72.20;99396.53;4941548;28;20046;-93
2022/12/13 06:50:18;;;;;;;39.85;15.80;;;;;;;-3.92;71.66;99387.88;4957222;28;20047;-94
2022/12/13 06:52:45;;;;;;;34.45;14.88;;;;;;;-3.95;71.89;99391.44;4936352;28;20046;-95
2022/12/13 06:55:13;;;;;;;42.13;15.77;;;;;;;-3.91;72.05;99388.75;4930201;28;20097;-93
2022/12/13 06:57:40;;;;;;;38.00;17.30;;;;;;;-3.89;71.85;99386.91;4980553;28;20042;-94
2022/12/13 07:00:08;;;;;;;39.70;16.27;;;;;;;-3.94;72.04;99384.50;4935823;28;20053;-95
2022/12/13 07:02:36;;;;;;;49.40;16.50;;;;;;;-3.97;72.04;99382.00;4946788;28;20050;-94
2022/12/13 07:05:04;;;;;;;46.13;16.20;;;;;;;-3.88;71.90;99376.50;4974397;28;20054;-95
2022/12/13 07:07:31;;;;;;;37.90;16.15;;;;;;;-3.96;71.34;99386.31;4971749;28;20046;-95
2022/12/13 07:09:57;;;;;;;42.80;16.23;;;;;;;-3.97;72.01;99394.97;4948344;28;20111;-95
2022/12/13 07:12:24;;;;;;;45.97;17.13;;;;;;;-4.01;72.23;99394.25;4938245;28;20497;-94
2022/12/13 07:14:51;;;;;;;43.63;16.52;;;;;;;-3.97;71.58;99390.66;4946914;28;20049;-94
2022/12/13 07:17:18;;;;;;;37.78;15.57;;;;;;;-3.98;71.50;99401.06;4961125;28;20046;-94
2022/12/13 07:20:06;;;;;;;41.70;16.45;;;;;;;-3.93;71.64;99394.81;4968722;28;20050;-95
2022/12/13 07:22:35;;;;;;;43.53;17.35;;;;;;;-4.04;71.48;99399.56;4982670;28;20078;-93
2022/12/13 07:25:12;;;;;;;51.15;16.45;;;;;;;-3.97;71.48;99388.06;4933908;28;20462;-94
2022/12/13 07:27:59;;;;;;;39.50;15.57;;;;;;;-3.95;71.37;99400.97;4967284;28;20135;-94
2022/12/13 07:30:33;;;;;;;44.67;16.73;;;;;;;-3.94;70.71;99402.66;4971438;28;20042;-94
2022/12/13 07:33:07;;;;;;;44.95;18.10;;;;;;;-3.95;71.04;99406.16;4932864;28;20042;-95
2022/12/13 07:35:35;;;;;;;43.78;17.15;;;;;;;-4.08;70.48;99404.91;4977183;28;20047;-93
2022/12/13 07:38:08;;;;;;;38.00;16.38;;;;;;;-4.19;70.34;99424.28;4963545;28;20065;-94
2022/12/13 07:40:37;;;;;;;37.17;16.15;;;;;;;-4.07;70.51;99419.53;4967392;28;20065;-94
2022/12/13 07:43:05;;;;;;;45.20;17.05;;;;;;;-4.02;70.37;99430.59;4926978;28;20549;-93
2022/12/13 07:45:32;;;;;;;44.85;17.83;;;;;;;-4.15;71.19;99430.19;4922747;28;20391;-94
2022/12/13 07:48:03;;;;;;;39.40;17.38;;;;;;;-4.17;70.82;99434.59;4941154;28;20137;-94
2022/12/13 07:50:31;;;;;;;47.10;18.17;;;;;;;-4.25;70.70;99436.59;4956174;28;20046;-94
2022/12/13 07:53:07;;;;;;;40.53;17.63;;;;;;;-4.19;70.67;99428.63;4974758;28;20043;-94
2022/12/13 07:55:35;;;;;;;41.58;16.33;;;;;;;-4.25;70.90;99431.41;4937684;28;20054;-95
2022/12/13 07:58:10;;;;;;;45.90;17.33;;;;;;;-4.22;70.57;99432.16;4937953;28;20046;-93
2022/12/13 08:00:38;;;;;;;39.05;16.45;;;;;;;-4.21;70.74;99433.00;4958812;28;20129;-94
2022/12/13 08:03:05;;;;;;;45.67;16.38;;;;;;;-4.20;70.95;99435.56;4940103;28;20076;-94
2022/12/13 08:05:34;;;;;;;44.70;18.75;;;;;;;-4.32;70.76;99435.97;4970468;28;20121;-94
2022/12/13 08:08:07;;;;;;;42.95;18.77;;;;;;;-4.29;70.69;99441.03;4962725;28;20054;-94
2022/12/13 08:10:34;;;;;;;39.05;17.63;;;;;;;-4.18;70.64;99431.13;4982265;28;20065;-94
2022/12/13 08:13:02;;;;;;;50.90;17.88;;;;;;;-4.27;70.81;99441.00;4974215;28;20053;-94
2022/12/13 08:15:29;;;;;;;43.35;17.15;;;;;;;-4.24;71.13;99438.31;4980708;28;20055;-94
2022/12/13 08:17:56;;;;;;;45.88;16.65;;;;;;;-4.17;71.06;99432.84;4936322;28;20042;-93
2022/12/13 08:20:23;;;;;;;47.17;18.08;;;;;;;-4.07;71.16;99428.19;4929244;28;20125;-94
2022/12/13 08:22:56;;;;;;;52.20;18.60;;;;;;;-4.28;70.88;99422.00;4950316;28;20043;-95
2022/12/13 08:25:29;;;;;;;49.47;17.13;;;;;;;-4.13;71.05;99427.56;4969869;28;20046;-93
2022/12/13 08:27:56;;;;;;;42.95;16.65;;;;;;;-4.15;70.81;99420.69;4973795;28;20434;-94
2022/12/13 08:30:29;;;;;;;49.38;17.25;;;;;;;-4.14;71.34;99421.53;4986356;28;20042;-94
2022/12/13 08:32:56;;;;;;;38.97;16.05;;;;;;;-4.26;70.80;99432.31;4950011;28;20052;-94
2022/12/13 08:35:26;;;;;;;46.72;18.17;;;;;;;-4.24;71.07;99441.72;4971690;28;20503;-94
2022/12/13 08:37:59;;;;;;;47.13;18.00;;;;;;;-4.16;71.50;99447.50;4940836;28;20042;-94
2022/12/13 08:40:26;;;;;;;47.15;17.52;;;;;;;-4.07;71.42;99446.34;4987562;28;20125;-93
2022/12/13 08:42:54;;;;;;;49.88;18.45;;;;;;;-4.18;71.58;99458.81;4940412;28;20050;-93
2022/12/13 08:45:22;;;;;;;49.97;20.25;;;;;;;-4.19;71.66;99460.56;4976236;28;20049;-95
2022/12/13 08:47:49;;;;;;;47.05;17.90;;;;;;;-4.07;71.22;99454.13;4938592;28;20050;-94
2022/12/13 08:50:16;;;;;;;48.58;19.02;;;;;;;-4.09;71.78;99450.72;4957135;28;20042;-94
2022/12/13 08:52:43;;;;;;;56.17;20.15;;;;;;;-4.13;71.71;99449.13;4952367;28;20134;-93
2022/12/13 08:55:12;;;;;;;53.85;19.15;;;;;;;-4.08;71.58;99443.78;4953267;28;20058;-94
2022/12/13 08:57:40;;;;;;;54.00;18.38;;;;;;;-4.03;71.73;99447.06;4949571;28;20042;-95
2022/12/13 09:00:11;;;;;;;47.40;17.13;;;;;;;-3.98;71.37;99450.34;4945107;28;20042;-94
2022/12/13 09:02:37;;;;;;;45.05;17.00;;;;;;;-4.08;71.96;99451.56;4953944;28;20043;-93
2022/12/13 09:05:06;;;;;;;48.70;16.80;;;;;;;-4.07;71.54;99448.06;4945425;28;20351;-94
2022/12/13 09:07:34;;;;;;;46.72;18.30;;;;;;;-4.04;71.92;99443.63;4938975;28;20042;-94
2022/12/13 09:10:03;;;;;;;49.03;18.38;;;;;;;-3.93;71.89;99441.50;4934169;28;20055;-93
2022/12/13 09:12:50;;;;;;;48.38;18.08;;;;;;;-3.94;71.36;99441.56;4934957;28;20066;-94
2022/12/13 09:15:17;;;;;;;46.03;18.77;;;;;;;-3.96;71.76;99433.84;4940725;28;20086;-94
2022/12/13 09:17:48;;;;;;;50.40;18.13;;;;;;;-3.99;71.76;99435.72;4956949;28;20042;-95
2022/12/13 09:20:18;;;;;;;51.35;19.02;;;;;;;-3.93;71.63;99430.28;4950729;28;20107;-94
2022/12/13 09:22:56;;;;;;;49.60;18.25;;;;;;;-3.86;72.00;99431.75;4964621;28;20069;-94
2022/12/13 09:25:30;;;;;;;55.45;19.10;;;;;;;-4.04;72.05;99435.88;4938282;28;20057;-94
2022/12/13 09:28:06;;;;;;;47.85;18.80;;;;;;;-3.97;71.67;99431.28;4954530;28;20046;-93
2022/12/13 09:30:37;;;;;;;47.75;18.38;;;;;;;-3.93;71.96;99428.53;4946784;28;20071;-94
2022/12/13 09:33:04;;;;;;;49.78;18.75;;;;;;;-3.87;71.95;99432.66;4959050;28;20154;-95
2022/12/13 09:35:51;;;;;;;50.08;19.33;;;;;;;-3.97;71.94;99436.47;4925420;28;20042;-96
2022/12/13 09:38:18;;;;;;;52.15;18.95;;;;;;;-3.83;71.95;99434.25;4970322;28;20038;-95
2022/12/13 09:40:47;;;;;;;48.28;18.00;;;;;;;-3.93;71.93;99431.13;4961538;28;20121;-95
2022/12/13 09:43:23;;;;;;;54.90;19.20;;;;;;;-3.84;72.51;99439.47;4995320;28;20130;-95
2022/12/13 09:46:03;;;;;;;42.15;16.77;;;;;;;-3.74;71.97;99438.25;4916706;28;20043;-95
2022/12/13 09:48:39;;;;;;;46.40;18.30;;;;;;;-3.76;71.87;99437.47;4958390;28;20050;-93
2022/12/13 09:51:14;;;;;;;43.80;18.35;;;;;;;-3.72;72.08;99439.03;4973127;28;20474;-94
2022/12/13 09:53:52;;;;;;;54.53;20.40;;;;;;;-3.67;72.56;99441.47;4947429;28;20529;-96
2022/12/13 09:56:20;;;;;;;46.28;17.70;;;;;;;-3.76;72.81;99434.88;4964391;28;20053;-94
2022/12/13 09:58:49;;;;;;;47.22;19.63;;;;;;;-3.71;72.70;99440.75;4958085;28;20042;-94
2022/12/13 10:01:16;;;;;;;50.40;18.80;;;;;;;-3.64;72.84;99426.63;4967912;28;20169;-94
2022/12/13 10:03:51;;;;;;;48.08;18.55;;;;;;;-3.63;72.37;99419.72;4938417;28;20043;-93
2022/12/13 10:06:19;;;;;;;56.13;17.83;;;;;;;-3.63;72.79;99419.72;4952964;28;20047;-95
2022/12/13 10:08:54;;;;;;;48.25;16.70;;;;;;;-3.58;72.22;99417.78;4933780;28;20047;-95
2022/12/13 10:11:25;;;;;;;51.95;19.88;;;;;;;-3.52;72.66;99412.34;4977231;28;20471;-95
2022/12/13 10:14:42;;;;;;;47.28;18.77;;;;;;;-3.56;73.13;99405.56;4941625;28;20058;-94
2022/12/13 10:17:14;;;;;;;41.95;16.30;;;;;;;-3.50;72.36;99415.75;4850339;28;21075;-94
2022/12/13 10:19:43;;;;;;;48.28;18.92;;;;;;;-3.50;72.69;99411.38;4913800;28;20046;-94
2022/12/13 10:22:13;;;;;;;49.45;19.13;;;;;;;-3.51;73.12;99401.06;4937419;28;20387;-95
2022/12/13 10:25:02;;;;;;;54.83;19.45;;;;;;;-3.49;72.36;99399.25;4959224;28;20050;-95
2022/12/13 10:27:35;;;;;;;44.08;16.75;;;;;;;-3.52;72.11;99409.75;4916903;28;20134;-94
2022/12/13 10:30:12;;;;;;;46.47;15.93;;;;;;;-3.45;71.98;99400.84;4958486;28;20133;-95
2022/12/13 10:32:58;;;;;;;43.83;16.65;;;;;;;-3.41;72.83;99393.78;4970856;28;20055;-95
2022/12/13 10:35:37;;;;;;;41.03;15.98;;;;;;;-3.42;72.44;99399.88;4917820;28;20069;-95
2022/12/13 10:38:07;;;;;;;48.20;16.13;;;;;;;-3.40;72.00;99396.31;4924178;28;20106;-96
2022/12/13 10:40:36;;;;;;;49.33;17.42;;;;;;;-3.41;72.17;99388.56;4960509;28;20038;-94
2022/12/13 10:43:22;;;;;;;46.65;18.20;;;;;;;-3.38;72.86;99389.31;4940692;28;20058;-94
2022/12/13 10:45:59;;;;;;;48.72;16.35;;;;;;;-3.38;72.43;99384.13;4970674;28;20078;-95
2022/12/13 10:48:32;;;;;;;45.42;16.60;;;;;;;-3.44;72.42;99386.09;4929417;28;20047;-95
2022/12/13 10:51:10;;;;;;;43.40;16.92;;;;;;;-3.34;72.34;99382.25;4949776;28;20055;-95
2022/12/13 10:53:45;;;;;;;44.10;16.30;;;;;;;-3.34;72.78;99383.09;4932593;28;20039;-95
2022/12/13 10:56:15;;;;;;;43.45;16.58;;;;;;;-3.29;72.38;99380.31;4960637;28;20042;-95
2022/12/13 10:59:08;;;;;;;52.58;18.05;;;;;;;-3.28;73.52;99367.28;5006958;28;20050;-95
2022/12/13 11:01:43;;;;;;;45.75;16.55;;;;;;;-3.19;72.30;99375.63;4955690;28;20447;-94
2022/12/13 11:04:22;;;;;;;47.97;17.35;;;;;;;-3.23;72.50;99368.84;4986899;28;20554;-94
2022/12/13 11:06:54;;;;;;;34.63;15.00;;;;;;;-3.22;72.06;99357.56;4966350;28;20053;-95
2022/12/13 11:09:28;;;;;;;37.25;15.25;;;;;;;-3.18;73.25;99351.31;4957359;28;20043;-94
2022/12/13 11:12:15;;;;;;;43.83;16.45;;;;;;;-3.20;72.04;99347.97;4978748;28;20466;-95
2022/12/13 11:14:55;;;;;;;44.03;16.73;;;;;;;-3.20;72.68;99350.56;4955049;28;20035;-95
2022/12/13 11:17:24;;;;;;;44.38;15.55;;;;;;;-3.14;71.64;99345.94;4944578;28;20051;-95
2022/12/13 11:19:53;;;;;;;40.35;16.10;;;;;;;-3.17;72.77;99340.88;4958035;28;20085;-95
2022/12/13 11:22:27;;;;;;;41.05;15.43;;;;;;;-3.17;71.47;99335.69;4986511;28;20125;-95
2022/12/13 11:24:59;;;;;;;40.03;15.55;;;;;;;-3.14;72.06;99334.72;4961002;28;20050;-95
2022/12/13 11:27:53;;;;;;;40.65;14.98;;;;;;;-3.12;71.88;99338.94;4939647;28;20771;-95
2022/12/13 11:30:46;;;;;;;43.45;16.13;;;;;;;-3.10;72.34;99333.72;4937635;28;20050;-96
2022/12/13 11:33:18;;;;;;;38.28;15.38;;;;;;;-3.03;71.86;99332.53;4927271;28;20477;-95
2022/12/13 11:35:51;;;;;;;45.15;16.75;;;;;;;-3.14;72.24;99343.34;4978427;28;20057;-95
2022/12/13 11:38:24;;;;;;;47.15;15.95;;;;;;;-3.07;72.72;99337.00;4946532;28;20047;-95
2022/12/13 11:41:09;;;;;;;42.95;15.18;;;;;;;-3.13;71.46;99326.00;4950467;28;20129;-96